createdAt,value
2018-02-09T00:01:03.118Z,51.50
2018-02-09T00:03:31.371Z,50.80
2018-02-09T00:05:59.746Z,52.67
2018-02-09T00:08:28.022Z,51.30
2018-02-09T00:10:56.274Z,46.87
2018-02-09T00:13:24.581Z,50.40
2018-02-09T00:15:52.930Z,51.40
2018-02-09T00:18:21.162Z,49.53
2018-02-09T00:20:49.414Z,50.80
2018-02-09T00:23:17.698Z,46.30
2018-02-09T00:25:45.950Z,49.80
2018-02-09T00:28:14.233Z,49.17
2018-02-09T00:30:42.650Z,50.43
2018-02-09T00:33:12.265Z,48.63
2018-02-09T00:35:41.273Z,44.80
2018-02-09T00:38:09.681Z,50.23
2018-02-09T00:40:43.813Z,50.83
2018-02-09T00:43:12.904Z,47.80
2018-02-09T00:45:43.333Z,46.40
2018-02-09T00:48:12.657Z,45.73
2018-02-09T00:50:41.697Z,43.33
2018-02-09T00:53:10.934Z,44.70
2018-02-09T00:55:39.343Z,47.23
2018-02-09T00:58:07.769Z,44.87
2018-02-09T01:00:36.983Z,46.33
2018-02-09T01:03:07.759Z,47.70
2018-02-09T01:05:36.241Z,47.50
2018-02-09T01:08:05.918Z,44.50
2018-02-09T01:10:34.188Z,45.57
2018-02-09T01:13:02.606Z,47.40
2018-02-09T01:15:32.309Z,47.03
2018-02-09T01:18:00.572Z,44.87
2018-02-09T01:20:29.054Z,47.93
2018-02-09T01:22:59.469Z,47.57
2018-02-09T01:25:27.758Z,44.53
2018-02-09T01:27:56.090Z,46.47
2018-02-09T01:30:24.334Z,48.43
2018-02-09T01:32:54.261Z,46.60
2018-02-09T01:35:22.525Z,46.13
2018-02-09T01:37:50.860Z,44.90
2018-02-09T01:40:19.354Z,44.67
2018-02-09T01:42:47.801Z,46.57
2018-02-09T01:45:16.717Z,46.07
2018-02-09T01:47:45.113Z,45.27
2018-02-09T01:50:16.580Z,49.47
2018-02-09T01:52:45.597Z,51.80
2018-02-09T01:55:14.609Z,48.37
2018-02-09T01:57:42.949Z,48.57
2018-02-09T02:00:11.965Z,55.57
2018-02-09T02:02:40.607Z,46.37
2018-02-09T02:05:09.465Z,51.27
2018-02-09T02:07:37.977Z,47.00
2018-02-09T02:10:07.270Z,46.97
2018-02-09T02:12:35.685Z,45.70
2018-02-09T02:15:05.502Z,46.10
2018-02-09T02:17:33.941Z,49.77
2018-02-09T02:20:02.210Z,46.47
2018-02-09T02:22:30.473Z,49.90
2018-02-09T02:24:58.772Z,43.93
2018-02-09T02:27:27.268Z,42.13
2018-02-09T02:29:55.538Z,44.67
2018-02-09T02:32:23.789Z,43.30
2018-02-09T02:34:52.368Z,43.60
2018-02-09T02:37:20.619Z,45.80
2018-02-09T02:39:50.192Z,40.00
2018-02-09T02:42:18.489Z,44.90
2018-02-09T02:44:47.974Z,43.63
2018-02-09T02:47:17.010Z,44.30
2018-02-09T02:49:45.428Z,45.33
2018-02-09T02:52:14.641Z,44.63
2018-02-09T02:54:43.058Z,45.57
2018-02-09T02:57:11.425Z,44.47
2018-02-09T02:59:40.445Z,41.90
2018-02-09T03:02:09.035Z,42.87
2018-02-09T03:04:37.481Z,44.70
2018-02-09T03:07:06.498Z,42.80
2018-02-09T03:09:34.745Z,45.53
2018-02-09T03:12:03.365Z,42.87
2018-02-09T03:14:31.609Z,46.30
2018-02-09T03:17:00.626Z,44.50
2018-02-09T03:19:29.913Z,44.70
2018-02-09T03:21:59.187Z,43.10
2018-02-09T03:24:27.625Z,46.80
2018-02-09T03:26:55.892Z,44.40
2018-02-09T03:29:24.195Z,44.67
2018-02-09T03:31:52.506Z,42.40
2018-02-09T03:34:21.163Z,46.37
2018-02-09T03:36:49.457Z,44.80
2018-02-09T03:39:17.705Z,46.43
2018-02-09T03:41:45.970Z,43.73
2018-02-09T03:44:16.130Z,43.93
2018-02-09T03:46:44.510Z,45.40
2018-02-09T03:49:12.772Z,43.83
2018-02-09T03:51:41.053Z,45.87
2018-02-09T03:54:09.302Z,46.07
2018-02-09T03:56:37.621Z,41.43
2018-02-09T03:59:05.866Z,46.20
2018-02-09T04:01:34.109Z,43.20
2018-02-09T04:04:02.378Z,44.47
2018-02-09T04:06:31.593Z,45.23
2018-02-09T04:08:59.849Z,45.70
2018-02-09T04:11:28.121Z,44.90
2018-02-09T04:13:57.297Z,46.17
2018-02-09T04:16:25.677Z,45.50
2018-02-09T04:18:54.129Z,46.43
2018-02-09T04:21:22.437Z,43.57
2018-02-09T04:23:50.817Z,44.20
2018-02-09T04:26:21.130Z,44.20
2018-02-09T04:28:49.417Z,44.33
2018-02-09T04:31:21.516Z,44.50
2018-02-09T04:33:49.897Z,44.67
2018-02-09T04:36:20.133Z,40.67
2018-02-09T04:38:51.613Z,43.40
2018-02-09T04:41:19.902Z,41.13
2018-02-09T04:43:48.121Z,44.20
2018-02-09T04:46:16.396Z,42.53
2018-02-09T04:48:45.421Z,41.80
2018-02-09T04:51:13.737Z,45.57
2018-02-09T04:53:42.013Z,40.20
2018-02-09T04:56:10.276Z,45.13
2018-02-09T04:58:38.585Z,43.40
2018-02-09T05:01:07.073Z,43.57
2018-02-09T05:03:35.326Z,46.03
2018-02-09T05:06:03.723Z,41.67
2018-02-09T05:08:32.113Z,43.90
2018-02-09T05:11:02.313Z,46.87
2018-02-09T05:13:30.685Z,44.30
2018-02-09T05:15:58.957Z,41.97
2018-02-09T05:18:27.201Z,44.70
2018-02-09T05:20:55.450Z,44.43
2018-02-09T05:23:24.593Z,42.80
2018-02-09T05:25:52.890Z,44.20
2018-02-09T05:28:21.292Z,42.07
2018-02-09T05:30:50.330Z,42.23
2018-02-09T05:33:18.574Z,45.37
2018-02-09T05:35:47.026Z,42.90
2018-02-09T05:38:15.595Z,45.77
2018-02-09T05:40:43.975Z,44.80
2018-02-09T05:43:12.197Z,44.07
2018-02-09T05:45:41.298Z,45.50
2018-02-09T05:48:10.453Z,46.50
2018-02-09T05:50:38.705Z,44.83
2018-02-09T05:53:06.969Z,44.40
2018-02-09T05:55:35.276Z,43.63
2018-02-09T05:58:03.676Z,44.90
2018-02-09T06:00:31.941Z,45.57
2018-02-09T06:03:00.203Z,44.10
2018-02-09T06:05:28.506Z,44.30
2018-02-09T06:07:56.913Z,45.73
2018-02-09T06:10:25.925Z,42.30
2018-02-09T06:12:54.244Z,45.57
2018-02-09T06:15:22.665Z,45.20
2018-02-09T06:17:51.681Z,43.67
2018-02-09T06:20:19.928Z,47.93
2018-02-09T06:22:48.401Z,44.80
2018-02-09T06:25:17.417Z,46.40
2018-02-09T06:27:45.754Z,43.10
2018-02-09T06:30:14.239Z,45.43
2018-02-09T06:32:42.714Z,44.50
2018-02-09T06:35:11.845Z,46.97
2018-02-09T06:37:42.843Z,44.80
2018-02-09T06:40:13.219Z,44.63
2018-02-09T06:42:41.479Z,45.90
2018-02-09T06:45:09.773Z,47.07
2018-02-09T06:47:38.026Z,42.90
2018-02-09T06:50:06.697Z,46.47
2018-02-09T06:52:35.545Z,43.30
2018-02-09T06:55:04.066Z,47.70
2018-02-09T06:57:32.614Z,46.77
2018-02-09T07:00:00.900Z,46.03
2018-02-09T07:02:29.141Z,44.10
2018-02-09T07:04:57.585Z,45.43
2018-02-09T07:07:25.853Z,47.30
2018-02-09T07:09:54.107Z,43.00
2018-02-09T07:12:22.421Z,45.87
2018-02-09T07:14:50.991Z,44.70
2018-02-09T07:17:19.230Z,46.37
2018-02-09T07:19:47.474Z,48.43
2018-02-09T07:22:15.962Z,46.53
2018-02-09T07:24:45.094Z,47.40
2018-02-09T07:27:13.321Z,49.07
2018-02-09T07:29:41.589Z,46.00
2018-02-09T07:32:09.843Z,47.60
2018-02-09T07:34:38.081Z,47.97
2018-02-09T07:37:06.594Z,47.90
2018-02-09T07:39:34.846Z,46.67
2018-02-09T07:42:03.089Z,46.53
2018-02-09T07:44:32.126Z,44.60
2018-02-09T07:47:00.372Z,46.73
2018-02-09T07:49:29.387Z,45.30
2018-02-09T07:51:57.653Z,46.20
2018-02-09T07:54:26.069Z,47.90
2018-02-09T07:56:54.313Z,48.93
2018-02-09T07:59:23.429Z,48.37
2018-02-09T08:01:51.673Z,46.77
2018-02-09T08:04:19.921Z,48.47
2018-02-09T08:06:48.196Z,45.90
2018-02-09T08:09:16.445Z,46.37
2018-02-09T08:11:44.701Z,47.60
2018-02-09T08:14:13.642Z,45.87
2018-02-09T08:16:41.873Z,46.53
2018-02-09T08:19:10.117Z,47.30
2018-02-09T08:21:39.276Z,48.00
2018-02-09T08:24:07.523Z,48.47
2018-02-09T08:26:35.767Z,51.57
2018-02-09T08:29:04.797Z,48.73
2018-02-09T08:31:33.042Z,47.10
2018-02-09T08:34:02.049Z,49.03
2018-02-09T08:36:30.317Z,51.63
2018-02-09T08:38:59.334Z,48.23
2018-02-09T08:41:27.574Z,51.53
2018-02-09T08:43:56.216Z,50.20
2018-02-09T08:46:24.465Z,50.10
2018-02-09T08:48:52.717Z,51.23
2018-02-09T08:51:20.977Z,50.10
2018-02-09T08:53:49.684Z,49.53
2018-02-09T08:56:19.925Z,46.57
2018-02-09T08:58:48.198Z,46.87
2018-02-09T09:01:17.018Z,49.90
2018-02-09T09:03:45.265Z,49.83
2018-02-09T09:06:13.902Z,47.63
2018-02-09T09:08:42.140Z,49.80
2018-02-09T09:11:10.457Z,49.63
2018-02-09T09:13:38.725Z,48.73
2018-02-09T09:16:06.969Z,47.83
2018-02-09T09:18:35.721Z,49.90
2018-02-09T09:21:04.004Z,48.83
2018-02-09T09:23:33.026Z,46.83
2018-02-09T09:26:01.275Z,49.33
2018-02-09T09:28:29.589Z,52.13
2018-02-09T09:30:57.838Z,47.63
2018-02-09T09:33:26.850Z,48.80
2018-02-09T09:35:56.118Z,47.37
2018-02-09T09:38:25.139Z,52.63
2018-02-09T09:40:53.377Z,55.57
2018-02-09T09:43:21.736Z,50.73
2018-02-09T09:45:49.965Z,51.00
2018-02-09T09:48:18.221Z,49.87
2018-02-09T09:50:47.052Z,49.43
2018-02-09T09:53:15.305Z,52.30
2018-02-09T09:55:43.586Z,52.37
2018-02-09T09:58:12.034Z,53.30
2018-02-09T10:00:40.279Z,51.27
2018-02-09T10:03:08.526Z,50.43
2018-02-09T10:05:36.797Z,52.93
2018-02-09T10:08:05.048Z,50.93
2018-02-09T10:10:34.059Z,51.33
2018-02-09T10:13:03.137Z,49.97
2018-02-09T10:15:31.393Z,51.20
2018-02-09T10:17:59.637Z,51.97
2018-02-09T10:20:28.036Z,52.77
2018-02-09T10:22:56.341Z,54.50
2018-02-09T10:25:24.597Z,54.53
2018-02-09T10:27:52.869Z,51.40
2018-02-09T10:30:21.115Z,52.50
2018-02-09T10:32:49.366Z,52.90
2018-02-09T10:35:17.881Z,53.10
2018-02-09T10:37:46.212Z,52.30
2018-02-09T10:40:15.234Z,51.97
2018-02-09T10:42:43.502Z,52.07
2018-02-09T10:45:11.761Z,52.47
2018-02-09T10:47:40.003Z,52.93
2018-02-09T10:50:08.274Z,55.00
2018-02-09T10:52:36.520Z,53.07
2018-02-09T10:55:04.769Z,53.40
2018-02-09T10:57:33.504Z,53.17
2018-02-09T11:00:01.977Z,53.57
2018-02-09T11:02:30.226Z,56.20
2018-02-09T11:04:58.694Z,53.77
2018-02-09T11:07:27.704Z,54.17
2018-02-09T11:09:57.210Z,56.90
2018-02-09T11:12:25.709Z,57.40
2018-02-09T11:14:53.949Z,57.57
2018-02-09T11:17:22.410Z,53.80
2018-02-09T11:19:51.174Z,59.00
2018-02-09T11:22:19.421Z,53.90
2018-02-09T11:24:47.853Z,56.17
2018-02-09T11:27:16.133Z,58.27
2018-02-09T11:29:44.386Z,60.47
2018-02-09T11:32:12.636Z,57.37
2018-02-09T11:34:40.901Z,59.60
2018-02-09T11:37:09.157Z,56.30
2018-02-09T11:39:37.401Z,58.90
2018-02-09T11:42:05.733Z,57.47
2018-02-09T11:44:33.973Z,55.60
2018-02-09T11:47:02.221Z,58.70
2018-02-09T11:49:30.557Z,55.67
2018-02-09T11:51:58.789Z,57.50
2018-02-09T11:54:27.037Z,53.00
2018-02-09T11:56:55.305Z,57.40
2018-02-09T11:59:23.637Z,54.90
2018-02-09T12:01:52.052Z,55.27
2018-02-09T12:04:21.502Z,57.97
2018-02-09T12:06:49.737Z,55.67
2018-02-09T12:09:17.978Z,58.90
2018-02-09T12:11:46.280Z,56.83
2018-02-09T12:14:15.514Z,55.67
2018-02-09T12:16:43.752Z,53.60
2018-02-09T12:19:12.058Z,56.50
2018-02-09T12:21:40.533Z,52.90
2018-02-09T12:24:08.781Z,55.07
2018-02-09T12:26:37.530Z,55.10
2018-02-09T12:29:05.909Z,55.23
2018-02-09T12:31:34.139Z,52.80
2018-02-09T12:34:02.805Z,53.97
2018-02-09T12:36:31.813Z,52.70
2018-02-09T12:39:00.186Z,55.40
2018-02-09T12:41:30.079Z,50.23
2018-02-09T12:43:58.277Z,53.20
2018-02-09T12:46:26.529Z,50.63
2018-02-09T12:48:54.973Z,52.70
2018-02-09T12:51:23.217Z,52.53
2018-02-09T12:53:51.822Z,49.97
2018-02-09T12:56:20.069Z,49.07
2018-02-09T12:58:49.533Z,50.07
2018-02-09T13:01:17.753Z,50.90
2018-02-09T13:03:47.074Z,53.77
2018-02-09T13:06:15.321Z,51.93
2018-02-09T13:08:43.778Z,52.73
2018-02-09T13:11:12.541Z,49.73
2018-02-09T13:13:40.793Z,51.57
2018-02-09T13:16:09.037Z,49.47
2018-02-09T13:18:48.108Z,50.37
2018-02-09T13:21:16.368Z,47.20
2018-02-09T13:23:56.535Z,45.37
2018-02-09T13:26:24.836Z,47.13
2018-02-09T13:28:59.145Z,47.53
2018-02-09T13:31:27.393Z,45.33
2018-02-09T13:33:55.648Z,48.43
2018-02-09T13:36:37.381Z,45.57
2018-02-09T13:39:05.621Z,50.33
2018-02-09T13:41:33.873Z,49.73
2018-02-09T13:44:02.446Z,48.07
2018-02-09T13:46:30.673Z,47.30
2018-02-09T13:49:00.004Z,47.43
2018-02-09T13:51:28.313Z,39.40
2018-02-09T13:53:56.557Z,46.90
2018-02-09T13:56:24.806Z,47.40
2018-02-09T13:58:53.198Z,46.80
2018-02-09T14:01:21.449Z,48.17
2018-02-09T14:03:50.237Z,49.23
2018-02-09T14:06:19.580Z,42.23
2018-02-09T14:08:47.825Z,46.50
2018-02-09T14:11:16.121Z,45.47
2018-02-09T14:13:44.384Z,45.50
2018-02-09T14:16:12.839Z,45.10
2018-02-09T14:18:41.082Z,45.80
2018-02-09T14:21:09.349Z,47.67
2018-02-09T14:23:38.537Z,46.83
2018-02-09T14:26:06.808Z,44.77
2018-02-09T14:28:35.276Z,46.87
2018-02-09T14:31:03.525Z,46.80
2018-02-09T14:33:31.990Z,43.03
2018-02-09T14:36:00.264Z,41.83
2018-02-09T14:38:28.517Z,43.90
2018-02-09T14:40:56.769Z,43.83
2018-02-09T14:43:25.041Z,43.60
2018-02-09T14:45:53.297Z,45.90
2018-02-09T14:48:22.302Z,42.87
2018-02-09T14:50:51.692Z,44.57
2018-02-09T14:53:19.959Z,43.60
2018-02-09T14:55:48.986Z,40.63
2018-02-09T14:58:17.262Z,36.13
2018-02-09T15:00:45.505Z,39.50
2018-02-09T15:03:13.750Z,44.03
2018-02-09T15:05:42.518Z,40.40
2018-02-09T15:08:10.761Z,41.10
2018-02-09T15:10:39.059Z,42.40
2018-02-09T15:13:07.604Z,44.67
2018-02-09T15:15:35.917Z,42.17
2018-02-09T15:18:04.173Z,40.93
2018-02-09T15:20:32.440Z,44.50
2018-02-09T15:23:01.269Z,43.33
2018-02-09T15:25:29.512Z,41.70
2018-02-09T15:27:58.549Z,42.50
2018-02-09T15:30:26.793Z,45.23
2018-02-09T15:32:55.049Z,43.47
2018-02-09T15:35:24.254Z,43.00
2018-02-09T15:37:52.469Z,41.77
2018-02-09T15:40:20.713Z,46.87
2018-02-09T15:42:49.749Z,44.30
2018-02-09T15:45:18.093Z,45.27
2018-02-09T15:47:47.118Z,45.17
2018-02-09T15:50:15.461Z,45.13
2018-02-09T15:52:44.469Z,40.23
2018-02-09T15:55:13.481Z,43.50
2018-02-09T15:57:41.922Z,46.00
2018-02-09T16:00:10.352Z,40.97
2018-02-09T16:02:38.605Z,43.47
2018-02-09T16:05:06.877Z,44.43
2018-02-09T16:07:36.049Z,42.27
2018-02-09T16:10:04.294Z,41.90
2018-02-09T16:12:33.685Z,42.00
2018-02-09T16:15:01.941Z,47.27
2018-02-09T16:17:30.243Z,47.33
2018-02-09T16:19:58.824Z,41.67
2018-02-09T16:22:27.070Z,46.30
2018-02-09T16:24:55.317Z,46.00
2018-02-09T16:27:23.593Z,43.80
2018-02-09T16:29:52.409Z,42.23
2018-02-09T16:32:20.653Z,43.17
2018-02-09T16:34:48.921Z,47.83
2018-02-09T16:37:17.171Z,42.77
2018-02-09T16:39:45.417Z,45.20
2018-02-09T16:42:14.237Z,43.33
2018-02-09T16:44:42.489Z,46.03
2018-02-09T16:47:11.132Z,46.03
2018-02-09T16:49:39.387Z,45.60
2018-02-09T16:52:07.635Z,47.03
2018-02-09T16:54:35.877Z,45.90
2018-02-09T16:57:04.184Z,44.97
2018-02-09T16:59:32.429Z,45.80
2018-02-09T17:02:00.673Z,45.60
2018-02-09T17:04:29.017Z,43.47
2018-02-09T17:06:59.378Z,45.63
2018-02-09T17:09:27.962Z,45.80
2018-02-09T17:11:56.239Z,36.50
2018-02-09T17:14:25.200Z,45.30
2018-02-09T17:16:53.453Z,42.53
2018-02-09T17:19:21.721Z,43.53
2018-02-09T17:21:50.738Z,44.03
2018-02-09T17:24:18.977Z,43.17
2018-02-09T17:26:47.650Z,45.00
2018-02-09T17:29:16.773Z,42.07
2018-02-09T17:31:45.785Z,41.00
2018-02-09T17:34:14.061Z,41.30
2018-02-09T17:36:42.301Z,43.13
2018-02-09T17:39:10.542Z,46.73
2018-02-09T17:41:38.805Z,43.00
2018-02-09T17:44:07.061Z,44.30
2018-02-09T17:46:37.188Z,44.90
2018-02-09T17:49:06.326Z,44.87
2018-02-09T17:51:34.565Z,45.30
2018-02-09T17:54:02.835Z,45.90
2018-02-09T17:56:31.107Z,44.03
2018-02-09T17:59:01.094Z,45.70
2018-02-09T18:01:29.356Z,44.57
2018-02-09T18:03:57.641Z,43.97
2018-02-09T18:06:25.891Z,45.10
2018-02-09T18:08:54.141Z,40.97
2018-02-09T18:11:22.945Z,44.17
2018-02-09T18:13:51.262Z,41.73
2018-02-09T18:16:19.596Z,46.10
2018-02-09T18:18:47.875Z,45.17
2018-02-09T18:21:16.814Z,44.53
2018-02-09T18:23:45.057Z,43.80
2018-02-09T18:26:13.325Z,44.00
2018-02-09T18:28:41.578Z,43.90
2018-02-09T18:31:11.880Z,46.77
2018-02-09T18:33:40.430Z,43.20
2018-02-09T18:36:09.050Z,45.23
2018-02-09T18:38:37.295Z,41.40
2018-02-09T18:41:05.568Z,43.27
2018-02-09T18:43:33.821Z,42.23
2018-02-09T18:46:02.577Z,41.30
2018-02-09T18:48:30.844Z,38.80
2018-02-09T18:50:59.242Z,36.40
2018-02-09T18:53:27.494Z,42.87
2018-02-09T18:55:57.284Z,43.20
2018-02-09T18:58:26.277Z,40.10
2018-02-09T19:00:54.522Z,40.47
2018-02-09T19:03:22.798Z,38.40
2018-02-09T19:05:51.048Z,43.77
2018-02-09T19:08:19.295Z,41.77
2018-02-09T19:10:47.585Z,41.87
2018-02-09T19:13:17.086Z,43.47
2018-02-09T19:15:46.273Z,41.97
2018-02-09T19:18:14.818Z,41.40
2018-02-09T19:20:43.124Z,42.20
2018-02-09T19:23:11.365Z,39.83
2018-02-09T19:25:39.645Z,42.43
2018-02-09T19:28:07.885Z,43.73
2018-02-09T19:30:36.905Z,45.47
2018-02-09T19:33:05.261Z,41.70
2018-02-09T19:35:34.782Z,45.57
2018-02-09T19:38:03.041Z,42.27
2018-02-09T19:40:31.421Z,43.40
2018-02-09T19:42:59.677Z,44.57
2018-02-09T19:45:27.925Z,46.33
2018-02-09T19:47:56.396Z,51.77
2018-02-09T19:50:24.642Z,46.53
2018-02-09T19:52:53.656Z,41.97
2018-02-09T19:55:21.934Z,44.47
2018-02-09T19:57:50.182Z,43.50
2018-02-09T20:00:18.426Z,42.77
2018-02-09T20:02:46.970Z,44.43
2018-02-09T20:05:15.213Z,44.70
2018-02-09T20:07:43.469Z,41.20
2018-02-09T20:10:11.762Z,42.67
2018-02-09T20:12:40.230Z,41.60
2018-02-09T20:15:08.474Z,42.63
2018-02-09T20:17:37.557Z,43.13
2018-02-09T20:20:05.810Z,42.87
2018-02-09T20:22:34.110Z,43.53
2018-02-09T20:25:02.636Z,44.27
2018-02-09T20:27:30.890Z,45.87
2018-02-09T20:29:59.181Z,44.87
2018-02-09T20:32:27.453Z,42.87
2018-02-09T20:34:56.702Z,41.37
2018-02-09T20:37:24.981Z,43.53
2018-02-09T20:39:54.009Z,41.07
2018-02-09T20:42:22.269Z,44.97
2018-02-09T20:44:50.521Z,46.10
2018-02-09T20:47:19.577Z,48.67
2018-02-09T20:49:47.817Z,42.83
2018-02-09T20:52:16.074Z,47.80
2018-02-09T20:54:44.337Z,46.30
2018-02-09T20:57:13.360Z,46.60
2018-02-09T20:59:42.366Z,45.43
2018-02-09T21:02:10.633Z,44.43
2018-02-09T21:04:38.881Z,42.50
2018-02-09T21:07:07.909Z,46.57
2018-02-09T21:09:36.442Z,46.50
2018-02-09T21:12:04.685Z,44.97
2018-02-09T21:14:34.045Z,49.07
2018-02-09T21:17:03.143Z,46.27
2018-02-09T21:19:31.435Z,44.47
2018-02-09T21:21:59.687Z,45.47
2018-02-09T21:24:28.193Z,45.10
2018-02-09T21:26:56.445Z,44.37
2018-02-09T21:29:24.701Z,46.67
2018-02-09T21:31:53.029Z,44.87
2018-02-09T21:34:21.282Z,44.23
2018-02-09T21:36:49.530Z,43.77
2018-02-09T21:39:17.800Z,43.47
2018-02-09T21:41:46.064Z,45.80
2018-02-09T21:44:14.765Z,44.53
2018-02-09T21:46:43.064Z,46.70
2018-02-09T21:49:11.306Z,45.20
2018-02-09T21:51:40.393Z,44.40
2018-02-09T21:54:08.725Z,44.63
2018-02-09T21:56:38.542Z,42.43
2018-02-09T21:59:06.785Z,46.47
2018-02-09T22:01:35.061Z,44.30
2018-02-09T22:04:03.309Z,46.90
2018-02-09T22:06:32.661Z,48.53
2018-02-09T22:09:00.937Z,45.23
2018-02-09T22:11:29.193Z,45.60
2018-02-09T22:13:57.445Z,42.13
2018-02-09T22:16:26.637Z,43.03
2018-02-09T22:18:54.897Z,44.40
2018-02-09T22:21:23.141Z,43.30
2018-02-09T22:23:51.408Z,45.20
2018-02-09T22:26:20.243Z,44.73
2018-02-09T22:28:48.485Z,43.63
2018-02-09T22:31:17.654Z,43.90
2018-02-09T22:33:45.893Z,44.80
2018-02-09T22:36:14.144Z,45.43
2018-02-09T22:38:43.077Z,43.00
2018-02-09T22:41:11.341Z,44.87
2018-02-09T22:43:39.589Z,43.80
2018-02-09T22:46:07.861Z,42.93
2018-02-09T22:48:36.885Z,42.97
2018-02-09T22:51:05.138Z,43.00
2018-02-09T22:53:34.179Z,44.93
2018-02-09T22:56:02.425Z,41.87
2018-02-09T22:58:30.673Z,43.97
2018-02-09T23:00:59.547Z,44.67
2018-02-09T23:03:27.773Z,43.30
2018-02-09T23:05:56.032Z,45.40
2018-02-09T23:08:25.865Z,45.53
2018-02-09T23:10:54.117Z,44.63
2018-02-09T23:13:22.397Z,46.70
2018-02-09T23:15:51.429Z,50.37
2018-02-09T23:18:19.842Z,45.93
2018-02-09T23:20:48.088Z,42.93
2018-02-09T23:23:16.567Z,43.70
2018-02-09T23:25:44.829Z,46.03
2018-02-09T23:28:13.064Z,46.47
2018-02-09T23:30:41.349Z,44.30
2018-02-09T23:33:10.857Z,45.27
2018-02-09T23:35:39.314Z,41.97
2018-02-09T23:38:07.589Z,43.13
2018-02-09T23:40:35.837Z,43.07
2018-02-09T23:43:04.082Z,45.57
2018-02-09T23:45:33.241Z,45.50
2018-02-09T23:48:01.489Z,46.20
2018-02-09T23:50:29.757Z,44.80
2018-02-09T23:52:58.024Z,45.60
2018-02-09T23:55:26.274Z,41.33
2018-02-09T23:57:54.521Z,45.70
